Time;durP1;ratioP1;P1;durP2;ratioP2;P2;SDS_P1;SDS_P2;PMS_P1;PMS_P2;Temp;Humidity;BMP_temperature;BMP_pressure;BME280_temperature;BME280_humidity;BME280_pressure;Samples;Min_cycle;Max_cycle;Signal;HPM_P1;HPM_P2
2021/03/21 00:00:41;;;;;;;9.78;8.15;;;;;;;-4.01;69.23;98818.90;1849729;77;21484;-64
2021/03/21 00:03:10;;;;;;;11.75;9.20;;;;;;;-4.03;69.19;98810.17;1849772;77;21473;-63
2021/03/21 00:05:38;;;;;;;9.83;8.75;;;;;;;-4.04;69.32;98811.03;1849610;77;20990;-63
2021/03/21 00:08:14;;;;;;;13.05;9.68;;;;;;;-4.05;69.29;98809.28;1849624;77;20992;-63
2021/03/21 00:10:50;;;;;;;13.65;10.08;;;;;;;-4.06;69.25;98804.94;1842295;77;20948;-64
2021/03/21 00:13:19;;;;;;;13.85;9.63;;;;;;;-4.09;69.32;98797.94;1840252;78;20912;-63
2021/03/21 00:15:48;;;;;;;9.58;8.63;;;;;;;-4.10;69.30;98796.21;1840175;78;21175;-63
2021/03/21 00:18:18;;;;;;;9.90;8.78;;;;;;;-4.11;69.26;98797.08;1840163;78;20924;-64
2021/03/21 00:20:45;;;;;;;12.20;9.80;;;;;;;-4.12;69.34;98797.95;1840304;78;20984;-63
2021/03/21 00:23:16;;;;;;;11.65;10.05;;;;;;;-4.14;69.25;98791.84;1840192;77;21415;-65
2021/03/21 00:25:43;;;;;;;11.50;8.83;;;;;;;-4.14;69.27;98789.22;1840060;77;21348;-63
2021/03/21 00:28:15;;;;;;;10.68;9.53;;;;;;;-4.16;69.21;98785.74;1840213;78;20916;-63
2021/03/21 00:30:45;;;;;;;13.53;8.45;;;;;;;-4.16;69.17;98784.42;1840258;77;20972;-64
2021/03/21 00:33:18;;;;;;;10.60;9.18;;;;;;;-4.17;69.23;98779.59;1840190;77;21114;-63
2021/03/21 00:35:46;;;;;;;9.90;8.90;;;;;;;-4.17;69.36;98773.49;1840302;78;22120;-63
2021/03/21 00:38:22;;;;;;;9.95;8.73;;;;;;;-4.19;69.36;98773.50;1840117;77;20967;-63
2021/03/21 00:40:54;;;;;;;10.30;8.53;;;;;;;-4.17;69.47;98781.36;1840230;77;21426;-62
2021/03/21 00:43:23;;;;;;;11.45;9.33;;;;;;;-4.21;69.55;98771.75;1839994;77;20971;-64
2021/03/21 00:45:50;;;;;;;9.60;8.28;;;;;;;-4.21;69.56;98773.95;1840249;78;20905;-62
2021/03/21 00:48:24;;;;;;;13.08;9.23;;;;;;;-4.21;69.56;98771.75;1840308;78;22301;-63
2021/03/21 00:50:52;;;;;;;12.33;9.28;;;;;;;-4.21;69.82;98775.69;1840107;78;20975;-63
2021/03/21 00:53:20;;;;;;;12.35;9.08;;;;;;;-4.23;69.75;98766.95;1840174;78;20921;-63
2021/03/21 00:55:48;;;;;;;12.75;9.18;;;;;;;-4.23;69.66;98757.77;1814433;78;21430;-63
2021/03/21 00:58:16;;;;;;;10.65;9.00;;;;;;;-4.24;69.47;98756.02;1840164;78;20956;-63
2021/03/21 01:00:50;;;;;;;12.53;7.87;;;;;;;-4.26;69.33;98749.92;1840153;78;23519;-62
2021/03/21 01:03:18;;;;;;;11.22;8.60;;;;;;;-4.27;69.31;98750.78;1840083;78;20909;-63
2021/03/21 01:05:59;;;;;;;11.65;9.38;;;;;;;-4.29;69.25;98742.06;1840038;77;20991;-62
2021/03/21 01:08:35;;;;;;;11.40;9.75;;;;;;;-4.28;69.21;98738.58;1839520;77;20928;-64
2021/03/21 01:11:16;;;;;;;13.05;9.58;;;;;;;-4.29;69.13;98735.50;1842374;77;21639;-63
2021/03/21 01:13:45;;;;;;;10.72;8.83;;;;;;;-4.31;69.10;98728.09;1849616;77;23429;-63
2021/03/21 01:16:20;;;;;;;13.25;9.95;;;;;;;-4.32;69.06;98730.27;1849519;76;21015;-64
2021/03/21 01:18:53;;;;;;;10.10;7.67;;;;;;;-4.34;69.18;98734.66;1849484;77;21035;-64
2021/03/21 01:21:23;;;;;;;12.20;8.90;;;;;;;-4.37;69.24;98726.36;1849630;77;20908;-64
2021/03/21 01:23:51;;;;;;;9.25;8.03;;;;;;;-4.39;69.32;98723.73;1849691;77;20920;-63
2021/03/21 01:26:21;;;;;;;14.45;9.90;;;;;;;-4.39;69.24;98718.50;1849547;77;21379;-63
2021/03/21 01:28:49;;;;;;;11.25;8.55;;;;;;;-4.38;69.27;98714.14;1849569;77;20940;-64
2021/03/21 01:31:20;;;;;;;10.88;8.68;;;;;;;-4.40;69.48;98716.77;1849526;77;20869;-63
2021/03/21 01:33:48;;;;;;;12.25;9.30;;;;;;;-4.41;69.40;98708.46;1849697;77;21428;-62
2021/03/21 01:36:29;;;;;;;9.98;8.63;;;;;;;-4.41;69.22;98701.91;1849668;77;20983;-63
2021/03/21 01:39:00;;;;;;;11.48;9.40;;;;;;;-4.42;69.15;98701.46;1849570;77;21350;-61
2021/03/21 01:41:32;;;;;;;11.25;8.83;;;;;;;-4.44;69.10;98699.30;1849397;77;21039;-63
2021/03/21 01:44:03;;;;;;;15.28;9.45;;;;;;;-4.45;69.14;98694.92;1849533;77;20998;-64
2021/03/21 01:46:39;;;;;;;11.53;8.83;;;;;;;-4.47;69.19;98701.93;1849573;77;20976;-63
2021/03/21 01:49:27;;;;;;;15.43;10.13;;;;;;;-4.47;69.22;98699.30;1849632;77;20908;-64
2021/03/21 01:51:55;;;;;;;15.45;10.00;;;;;;;-4.49;69.22;98689.27;1819874;77;21455;-62
2021/03/21 01:54:24;;;;;;;14.83;9.35;;;;;;;-4.51;69.28;98687.52;1849348;77;21634;-64
2021/03/21 01:56:51;;;;;;;18.00;10.23;;;;;;;-4.54;69.26;98684.05;1849629;77;20909;-64
2021/03/21 01:59:26;;;;;;;15.20;9.53;;;;;;;-4.54;69.23;98684.47;1849472;77;21456;-63
2021/03/21 02:01:59;;;;;;;11.75;8.05;;;;;;;-4.56;69.42;98671.81;1849592;77;20991;-63
2021/03/21 02:04:27;;;;;;;12.30;9.73;;;;;;;-4.56;69.35;98671.81;1849694;76;21370;-63
2021/03/21 02:07:12;;;;;;;15.98;9.80;;;;;;;-4.59;69.38;98672.72;1849419;77;21473;-63
2021/03/21 02:10:16;;;;;;;11.88;9.68;;;;;;;-4.59;69.47;98673.14;1849677;77;21058;-63
2021/03/21 02:12:56;;;;;;;12.82;8.43;;;;;;;-4.61;69.50;98674.91;1795375;79;20995;-63
2021/03/21 02:15:39;;;;;;;12.20;9.30;;;;;;;-4.63;69.45;98670.12;1817909;79;21497;-63
2021/03/21 02:18:35;;;;;;;12.05;8.88;;;;;;;-4.66;69.44;98663.58;1754725;79;21374;-62
2021/03/21 02:21:23;;;;;;;10.98;8.18;;;;;;;-4.67;69.35;98659.20;1818365;79;21472;-64
2021/03/21 02:24:30;;;;;;;13.03;10.15;;;;;;;-4.69;69.38;98655.72;1818298;79;21348;-64
2021/03/21 02:27:27;;;;;;;12.70;9.28;;;;;;;-4.70;69.35;98656.59;1818098;77;20904;-63
2021/03/21 02:30:06;;;;;;;13.43;9.40;;;;;;;-4.75;69.33;98648.74;1818313;79;20999;-63
2021/03/21 02:32:55;;;;;;;12.20;10.15;;;;;;;-4.77;69.49;98639.58;1818341;79;21188;-63
2021/03/21 02:35:38;;;;;;;11.33;9.53;;;;;;;-4.79;69.43;98637.41;1783082;79;21022;-63
2021/03/21 02:38:29;;;;;;;12.00;10.23;;;;;;;-4.80;69.34;98638.27;1818242;79;21429;-63
2021/03/21 02:41:03;;;;;;;11.12;8.88;;;;;;;-4.81;69.21;98634.34;1818442;79;21481;-63
2021/03/21 02:43:37;;;;;;;10.45;8.25;;;;;;;-4.82;69.09;98629.56;1784478;79;21583;-63
2021/03/21 02:46:25;;;;;;;10.48;8.88;;;;;;;-4.79;69.04;98623.00;1836827;78;27959;-64
2021/03/21 02:49:04;;;;;;;9.35;8.40;;;;;;;-4.83;68.91;98622.56;1809307;79;20992;-62
2021/03/21 02:51:36;;;;;;;10.35;9.23;;;;;;;-4.83;68.87;98617.32;1804340;79;21252;-62
2021/03/21 02:54:16;;;;;;;10.43;8.28;;;;;;;-4.82;68.81;98614.28;1778625;79;21042;-63
2021/03/21 02:56:50;;;;;;;10.55;9.45;;;;;;;-4.82;68.78;98609.91;1809335;79;20964;-62
2021/03/21 02:59:29;;;;;;;11.83;8.88;;;;;;;-4.84;68.64;98606.84;1809233;79;20917;-63
2021/03/21 03:02:10;;;;;;;10.78;8.38;;;;;;;-4.84;68.67;98609.47;1809363;79;20976;-63
2021/03/21 03:04:42;;;;;;;10.40;7.92;;;;;;;-4.85;68.58;98606.44;1809373;79;21179;-64
2021/03/21 03:07:24;;;;;;;10.28;8.05;;;;;;;-4.86;68.55;98608.16;1809368;79;20900;-64
2021/03/21 03:09:55;;;;;;;10.75;8.00;;;;;;;-4.87;68.58;98607.75;1809386;79;21376;-63
2021/03/21 03:12:37;;;;;;;9.73;8.55;;;;;;;-4.87;68.47;98597.27;1809295;79;21000;-63
2021/03/21 03:15:09;;;;;;;9.85;8.03;;;;;;;-4.86;68.50;98602.92;1809374;79;20991;-63
2021/03/21 03:18:00;;;;;;;11.60;8.60;;;;;;;-4.88;68.40;98590.27;1809333;79;22270;-63
2021/03/21 03:20:36;;;;;;;12.07;8.90;;;;;;;-4.87;68.27;98594.65;1767405;79;20976;-62
2021/03/21 03:23:29;;;;;;;10.95;8.43;;;;;;;-4.88;68.29;98579.80;1809309;79;21003;-64
2021/03/21 03:26:07;;;;;;;11.78;8.73;;;;;;;-4.87;68.11;98577.62;1809247;79;21461;-63
2021/03/21 03:28:52;;;;;;;12.70;9.23;;;;;;;-4.87;67.89;98568.45;1809361;79;20992;-63
2021/03/21 03:31:26;;;;;;;11.28;9.43;;;;;;;-4.87;67.68;98565.83;1809207;79;21229;-63
2021/03/21 03:33:56;;;;;;;9.95;8.18;;;;;;;-4.86;67.54;98559.69;1809235;79;20972;-63
2021/03/21 03:36:23;;;;;;;8.48;7.08;;;;;;;-4.85;67.35;98553.58;1809401;79;21346;-63
2021/03/21 03:38:51;;;;;;;9.63;7.53;;;;;;;-4.85;67.16;98544.41;1809169;79;21398;-63
2021/03/21 03:41:25;;;;;;;9.60;7.47;;;;;;;-4.83;67.18;98545.71;1809257;79;21350;-63
2021/03/21 03:44:17;;;;;;;9.08;8.13;;;;;;;-4.83;67.15;98540.02;1809243;79;22154;-63
2021/03/21 03:47:09;;;;;;;10.25;8.08;;;;;;;-4.83;67.19;98538.71;1740758;81;21031;-63
2021/03/21 03:50:03;;;;;;;10.32;8.48;;;;;;;-4.82;67.12;98531.30;1740689;82;21039;-63
2021/03/21 03:52:40;;;;;;;8.15;7.15;;;;;;;-4.81;67.06;98529.11;1786742;79;20923;-63
2021/03/21 03:55:25;;;;;;;8.68;7.62;;;;;;;-4.81;66.66;98524.30;1804261;79;21416;-63
2021/03/21 03:58:19;;;;;;;11.28;7.15;;;;;;;-4.82;66.65;98523.88;1803661;79;21400;-63
2021/03/21 04:01:01;;;;;;;9.00;7.75;;;;;;;-4.82;66.54;98516.88;1803439;79;20979;-64
2021/03/21 04:03:48;;;;;;;14.30;6.97;;;;;;;-4.83;66.59;98516.44;1803617;79;21054;-64
2021/03/21 04:06:40;;;;;;;11.85;8.28;;;;;;;-4.85;66.63;98514.28;1803469;79;20971;-63
2021/03/21 04:09:24;;;;;;;11.80;8.28;;;;;;;-4.87;66.68;98507.30;1803583;79;20927;-62
2021/03/21 04:12:04;;;;;;;17.62;8.15;;;;;;;-4.90;66.92;98504.27;1803668;79;21381;-63
2021/03/21 04:14:49;;;;;;;8.50;7.53;;;;;;;-4.93;67.10;98506.91;1803644;79;21341;-63
2021/03/21 04:17:54;;;;;;;12.33;9.70;;;;;;;-4.98;67.27;98502.11;1796278;79;21457;-64
2021/03/21 04:20:27;;;;;;;12.88;9.95;;;;;;;-5.02;67.39;98499.09;1803523;79;20927;-63
2021/03/21 04:23:15;;;;;;;13.58;10.13;;;;;;;-5.07;67.79;98496.95;1803565;79;21025;-63
2021/03/21 04:25:47;;;;;;;14.38;10.63;;;;;;;-5.12;67.99;98497.83;1803622;79;21190;-63
2021/03/21 04:28:22;;;;;;;13.78;10.28;;;;;;;-5.17;68.17;98495.67;1803548;79;20927;-62
2021/03/21 04:30:56;;;;;;;15.25;11.22;;;;;;;-5.22;68.38;98488.26;1803286;79;21050;-62
2021/03/21 04:33:27;;;;;;;16.62;12.00;;;;;;;-5.26;68.66;98490.48;1803508;79;20944;-63
2021/03/21 04:36:01;;;;;;;15.40;12.53;;;;;;;-5.30;68.95;98487.43;1803354;79;21543;-63
2021/03/21 04:38:43;;;;;;;18.32;12.58;;;;;;;-5.33;69.21;98484.83;1803834;79;21430;-63
2021/03/21 04:41:20;;;;;;;14.93;12.28;;;;;;;-5.35;69.36;98488.75;1803760;79;20884;-62
2021/03/21 04:43:55;;;;;;;20.50;14.23;;;;;;;-5.36;69.59;98491.37;1803748;79;20951;-62
2021/03/21 04:46:31;;;;;;;24.82;13.03;;;;;;;-5.41;69.77;98474.38;1812207;79;20920;-63
2021/03/21 04:48:59;;;;;;;38.95;15.95;;;;;;;-5.39;69.97;98483.54;1814951;78;20975;-63
2021/03/21 04:51:35;;;;;;;31.85;15.50;;;;;;;-5.34;70.22;98486.58;1815463;79;21314;-65
2021/03/21 04:54:23;;;;;;;23.70;13.98;;;;;;;-5.24;70.29;98483.48;1815445;79;20912;-62
2021/03/21 04:57:08;;;;;;;17.60;12.47;;;;;;;-5.08;70.19;98482.95;1815536;79;20974;-63
2021/03/21 04:59:36;;;;;;;19.75;14.15;;;;;;;-4.86;69.74;98481.08;1815170;79;20983;-63
2021/03/21 05:02:27;;;;;;;19.30;13.22;;;;;;;-4.61;69.23;98477.00;1815464;79;21040;-63
2021/03/21 05:05:15;;;;;;;26.45;14.68;;;;;;;-4.39;68.54;98466.77;1815348;79;21363;-63
2021/03/21 05:07:53;;;;;;;21.55;14.63;;;;;;;-4.10;68.08;98465.66;1815374;79;20932;-64
2021/03/21 05:10:30;;;;;;;20.50;14.68;;;;;;;-3.82;67.53;98462.73;1800601;79;20932;-63
2021/03/21 05:13:10;;;;;;;24.35;16.55;;;;;;;-3.53;67.10;98471.61;1815478;79;20912;-62
2021/03/21 05:15:46;;;;;;;20.62;16.40;;;;;;;-3.23;66.49;98460.31;1815237;79;20991;-63
2021/03/21 05:18:48;;;;;;;24.07;17.37;;;;;;;-2.87;65.64;98463.75;1759616;79;21377;-65
2021/03/21 05:21:44;;;;;;;25.72;17.35;;;;;;;-2.58;65.17;98459.39;1815447;79;21046;-64
2021/03/21 05:24:20;;;;;;;23.00;17.40;;;;;;;-2.20;64.33;98440.78;1815446;79;20908;-63
2021/03/21 05:27:02;;;;;;;25.92;17.17;;;;;;;-1.89;63.14;98445.05;1815302;79;21015;-62
2021/03/21 05:30:16;;;;;;;26.25;16.87;;;;;;;-1.60;62.34;98446.26;1815608;79;20908;-63
2021/03/21 05:32:46;;;;;;;31.75;18.23;;;;;;;-1.31;61.47;98438.20;1815522;79;21388;-62
2021/03/21 05:35:25;;;;;;;18.02;14.38;;;;;;;-0.95;61.03;98431.72;1815324;79;21363;-62
2021/03/21 05:38:06;;;;;;;24.80;18.25;;;;;;;-0.65;59.97;98434.56;1815467;78;20916;-64
2021/03/21 05:41:16;;;;;;;23.12;17.95;;;;;;;-0.37;59.14;98431.66;1815469;79;21478;-64
2021/03/21 05:44:20;;;;;;;20.43;16.52;;;;;;;-0.06;58.70;98422.98;1815398;79;20905;-63
2021/03/21 05:47:11;;;;;;;19.70;16.67;;;;;;;0.24;57.93;98419.11;1807066;78;21449;-64
2021/03/21 05:49:54;;;;;;;22.02;14.85;;;;;;;0.54;57.13;98416.05;1707533;83;21049;-63
2021/03/21 05:52:50;;;;;;;19.48;14.45;;;;;;;0.78;56.25;98408.79;1790047;79;20893;-64
2021/03/21 05:55:45;;;;;;;18.27;15.08;;;;;;;0.93;55.64;98405.69;1804081;79;20952;-62
2021/03/21 05:58:49;;;;;;;21.50;15.10;;;;;;;1.05;55.60;98407.08;1804395;79;21019;-64
2021/03/21 06:01:52;;;;;;;23.27;16.48;;;;;;;1.23;54.78;98405.19;1803803;79;22019;-64
2021/03/21 06:04:57;;;;;;;22.67;19.70;;;;;;;1.43;54.03;98405.89;1804137;79;20924;-63
2021/03/21 06:07:54;;;;;;;28.62;21.75;;;;;;;1.70;53.07;98408.98;1804275;79;21027;-63
2021/03/21 06:10:53;;;;;;;22.73;19.30;;;;;;;1.97;52.15;98405.41;1804300;79;20901;-63
2021/03/21 06:13:50;;;;;;;17.50;13.78;;;;;;;2.25;51.27;98403.56;1804401;79;20905;-63
2021/03/21 06:16:54;;;;;;;17.87;13.93;;;;;;;2.53;49.85;98410.06;1781058;79;21145;-64
2021/03/21 06:19:58;;;;;;;17.10;13.18;;;;;;;2.81;49.54;98403.75;1804305;78;20924;-63
2021/03/21 06:23:09;;;;;;;15.80;13.08;;;;;;;3.07;48.70;98393.00;1804368;79;21338;-64
2021/03/21 06:26:15;;;;;;;13.10;11.70;;;;;;;3.35;49.31;98383.06;1803755;79;20948;-64
2021/03/21 06:29:12;;;;;;;12.03;10.72;;;;;;;3.63;48.07;98382.80;1804297;79;20893;-63
2021/03/21 06:31:54;;;;;;;11.83;10.50;;;;;;;3.93;47.28;98372.66;1803414;79;21333;-63
2021/03/21 06:34:46;;;;;;;11.10;9.73;;;;;;;4.16;47.27;98362.82;1804364;79;20968;-65
2021/03/21 06:37:39;;;;;;;12.07;8.90;;;;;;;4.34;46.68;98358.02;1804297;79;20905;-64
2021/03/21 06:40:46;;;;;;;10.85;9.75;;;;;;;4.46;46.19;98350.42;1803596;78;20988;-64
2021/03/21 06:43:37;;;;;;;13.50;9.55;;;;;;;4.63;46.59;98351.84;1804367;79;20909;-64
2021/03/21 06:46:42;;;;;;;11.10;7.37;;;;;;;4.83;46.19;98345.60;1802178;79;21365;-64
2021/03/21 06:49:24;;;;;;;8.38;7.58;;;;;;;5.06;45.73;98344.97;1740300;82;20983;-64
2021/03/21 06:52:14;;;;;;;8.93;7.35;;;;;;;5.22;42.13;98349.12;1789344;79;20925;-65
2021/03/21 06:55:31;;;;;;;11.73;8.70;;;;;;;5.33;42.10;98346.79;1797738;79;20992;-64
2021/03/21 06:58:28;;;;;;;10.48;8.58;;;;;;;5.39;41.33;98337.61;1797782;79;20918;-63
2021/03/21 07:01:13;;;;;;;8.30;7.40;;;;;;;5.48;41.98;98336.31;1797358;79;21346;-65
2021/03/21 07:04:20;;;;;;;11.20;8.18;;;;;;;5.58;41.10;98338.89;1797743;79;20917;-64
2021/03/21 07:07:42;;;;;;;9.43;7.33;;;;;;;5.65;40.82;98327.48;1797763;79;20968;-65
2021/03/21 07:10:42;;;;;;;8.50;7.15;;;;;;;5.76;41.24;98325.98;1797843;79;20930;-64
2021/03/21 07:13:44;;;;;;;9.93;7.60;;;;;;;5.94;39.45;98328.64;1797701;79;20917;-63
2021/03/21 07:16:54;;;;;;;6.92;6.33;;;;;;;6.00;39.30;98321.69;1797810;79;22271;-63
2021/03/21 07:19:57;;;;;;;13.32;6.87;;;;;;;6.01;38.48;98323.87;1797663;79;20905;-64
2021/03/21 07:23:05;;;;;;;7.83;6.95;;;;;;;5.99;38.97;98307.96;1797828;79;20929;-63
2021/03/21 07:26:03;;;;;;;9.68;8.68;;;;;;;6.02;38.85;98307.80;1797694;79;20936;-63
2021/03/21 07:28:49;;;;;;;11.03;9.85;;;;;;;6.14;38.81;98308.49;1795429;79;21470;-64
2021/03/21 07:31:37;;;;;;;10.10;9.03;;;;;;;6.27;38.62;98304.70;1797803;79;21375;-63
2021/03/21 07:34:24;;;;;;;9.60;8.70;;;;;;;6.44;39.54;98297.13;1797969;79;21410;-65
2021/03/21 07:37:27;;;;;;;11.70;10.18;;;;;;;6.62;38.38;98290.40;1797978;79;20936;-65
2021/03/21 07:40:01;;;;;;;12.53;11.33;;;;;;;6.76;38.21;98277.14;1797994;79;21506;-67
2021/03/21 07:43:14;;;;;;;10.68;8.03;;;;;;;6.89;38.47;98269.34;1797571;79;20992;-64
2021/03/21 07:46:26;;;;;;;9.78;8.78;;;;;;;7.02;37.59;98271.68;1797864;77;21286;-64
2021/03/21 07:49:42;;;;;;;17.40;12.85;;;;;;;6.99;37.22;98267.00;1803763;79;21010;-63
2021/03/21 07:52:26;;;;;;;18.77;13.22;;;;;;;6.88;38.14;98262.27;1803758;79;20931;-62
2021/03/21 07:55:18;;;;;;;18.77;15.72;;;;;;;6.92;38.98;98258.94;1764729;79;20872;-64
2021/03/21 07:58:05;;;;;;;16.73;12.40;;;;;;;7.00;39.01;98247.34;1803997;79;20979;-64
2021/03/21 08:00:32;;;;;;;20.62;14.90;;;;;;;7.16;38.64;98244.19;1803518;79;21191;-64
2021/03/21 08:03:25;;;;;;;14.03;12.03;;;;;;;7.33;38.99;98230.30;1803736;79;20943;-65
2021/03/21 08:05:56;;;;;;;12.47;11.18;;;;;;;7.50;38.29;98230.16;1803856;79;20943;-64
2021/03/21 08:08:28;;;;;;;11.83;10.70;;;;;;;7.59;37.54;98220.27;1803929;79;20900;-65
2021/03/21 08:11:01;;;;;;;11.00;9.88;;;;;;;7.68;38.06;98222.88;1803823;79;21015;-64
2021/03/21 08:13:42;;;;;;;11.55;10.45;;;;;;;7.75;37.30;98212.66;1803831;79;21351;-64
2021/03/21 08:16:17;;;;;;;11.68;10.58;;;;;;;7.77;37.43;98206.73;1803759;79;20896;-63
2021/03/21 08:18:46;;;;;;;9.40;8.40;;;;;;;7.71;36.96;98203.98;1803167;79;21476;-64
2021/03/21 08:21:20;;;;;;;15.85;10.88;;;;;;;7.58;36.85;98190.50;1803234;79;21575;-65
2021/03/21 08:23:50;;;;;;;11.63;10.45;;;;;;;7.55;37.28;98196.03;1803471;79;21563;-65
2021/03/21 08:26:27;;;;;;;11.45;10.35;;;;;;;7.55;37.44;98184.45;1803473;79;21360;-66
2021/03/21 08:29:14;;;;;;;11.35;9.78;;;;;;;7.53;37.52;98184.55;1803557;79;20987;-65
2021/03/21 08:31:45;;;;;;;9.83;8.93;;;;;;;7.54;38.34;98183.61;1803649;79;20987;-64
2021/03/21 08:34:45;;;;;;;15.40;8.83;;;;;;;7.48;37.31;98173.77;1799923;79;20923;-67
2021/03/21 08:37:34;;;;;;;9.35;8.23;;;;;;;7.38;36.41;98153.44;1803618;79;21701;-63
2021/03/21 08:40:32;;;;;;;12.30;8.83;;;;;;;7.15;37.75;98156.98;1792900;79;21904;-64
2021/03/21 08:43:26;;;;;;;10.90;7.75;;;;;;;7.07;37.82;98160.59;1803561;79;21011;-65
2021/03/21 08:46:03;;;;;;;9.88;8.85;;;;;;;6.95;37.10;98154.63;1803471;79;20912;-65
2021/03/21 08:48:35;;;;;;;9.80;8.90;;;;;;;6.85;37.31;98140.48;1797541;79;20968;-64
2021/03/21 08:51:15;;;;;;;8.50;7.70;;;;;;;6.81;37.50;98133.62;1797452;79;20969;-64
2021/03/21 08:54:13;;;;;;;8.88;7.97;;;;;;;6.78;37.11;98135.13;1797653;79;21829;-66
2021/03/21 08:57:16;;;;;;;8.20;7.33;;;;;;;6.66;37.09;98131.83;1797388;79;20955;-65
2021/03/21 08:59:45;;;;;;;11.28;8.28;;;;;;;6.50;37.23;98131.38;1796106;79;20940;-66
2021/03/21 09:02:19;;;;;;;7.85;7.15;;;;;;;6.37;37.43;98123.69;1797594;79;20921;-63
2021/03/21 09:05:04;;;;;;;9.78;8.78;;;;;;;6.26;38.35;98123.41;1797585;79;21011;-65
2021/03/21 09:07:37;;;;;;;13.55;7.90;;;;;;;6.20;38.20;98126.45;1797739;79;21196;-65
2021/03/21 09:10:19;;;;;;;12.53;7.62;;;;;;;6.05;37.92;98134.33;1797392;79;20980;-64
2021/03/21 09:13:13;;;;;;;14.85;8.05;;;;;;;5.99;37.94;98130.67;1797652;79;21012;-66
2021/03/21 09:15:47;;;;;;;11.05;7.58;;;;;;;5.81;38.52;98114.34;1797801;79;21568;-66
2021/03/21 09:18:34;;;;;;;8.35;7.55;;;;;;;5.87;38.84;98120.67;1797728;79;20917;-63
2021/03/21 09:21:26;;;;;;;9.68;7.28;;;;;;;5.85;37.59;98107.88;1797614;79;21354;-66
2021/03/21 09:24:11;;;;;;;8.13;6.92;;;;;;;5.87;38.30;98104.68;1797563;79;20973;-65
2021/03/21 09:26:42;;;;;;;8.98;8.18;;;;;;;5.86;39.40;98103.80;1797554;79;21418;-66
2021/03/21 09:29:31;;;;;;;7.90;6.87;;;;;;;5.81;40.02;98097.02;1797736;79;20881;-65
2021/03/21 09:32:08;;;;;;;12.45;7.62;;;;;;;5.84;38.12;98096.37;1797506;79;20968;-64
2021/03/21 09:35:07;;;;;;;9.55;8.23;;;;;;;5.75;38.03;98092.39;1795671;79;22356;-67
2021/03/21 09:37:35;;;;;;;8.18;6.78;;;;;;;5.59;37.90;98092.36;1797508;79;21020;-65
2021/03/21 09:40:26;;;;;;;7.08;6.30;;;;;;;5.56;38.59;98077.03;1766372;79;21494;-64
2021/03/21 09:42:56;;;;;;;8.40;6.87;;;;;;;5.59;39.43;98076.38;1797205;79;21028;-65
2021/03/21 09:45:25;;;;;;;14.70;7.35;;;;;;;5.56;38.99;98066.38;1797166;79;20941;-63
2021/03/21 09:47:56;;;;;;;7.22;6.42;;;;;;;5.55;38.51;98065.97;1797506;79;21441;-64
2021/03/21 09:50:55;;;;;;;15.88;7.33;;;;;;;5.47;38.43;98064.20;1797474;79;21016;-65
2021/03/21 09:53:58;;;;;;;8.13;7.22;;;;;;;5.41;38.91;98053.42;1797455;79;21028;-66
2021/03/21 09:56:37;;;;;;;7.65;6.87;;;;;;;5.35;38.32;98047.09;1797089;79;21023;-66
2021/03/21 09:59:49;;;;;;;11.60;7.45;;;;;;;5.31;39.01;98043.71;1797465;79;21461;-66
2021/03/21 10:02:41;;;;;;;9.60;7.03;;;;;;;5.29;38.79;98048.27;1797458;79;21372;-65
2021/03/21 10:05:22;;;;;;;11.45;6.80;;;;;;;5.31;39.50;98045.05;1797321;79;21012;-64
2021/03/21 10:08:09;;;;;;;7.47;6.10;;;;;;;5.25;38.12;98032.09;1797563;79;21581;-65
2021/03/21 10:10:57;;;;;;;6.40;5.53;;;;;;;5.25;39.91;98034.27;1797465;79;21255;-65
2021/03/21 10:13:35;;;;;;;7.70;6.90;;;;;;;5.22;39.12;98029.59;1797476;79;20890;-65
2021/03/21 10:16:20;;;;;;;8.10;6.78;;;;;;;5.19;39.21;98029.75;1797575;79;21354;-65
2021/03/21 10:18:51;;;;;;;7.90;6.37;;;;;;;5.20;38.85;98039.44;1791332;79;21011;-65
2021/03/21 10:21:30;;;;;;;7.30;6.70;;;;;;;5.22;38.75;98029.59;1797695;79;20960;-65
2021/03/21 10:24:15;;;;;;;8.03;7.22;;;;;;;5.19;38.45;98019.10;1797535;79;20992;-62
2021/03/21 10:27:19;;;;;;;6.72;6.12;;;;;;;5.16;39.37;98013.94;1797077;79;20964;-64
2021/03/21 10:30:23;;;;;;;7.45;6.72;;;;;;;5.15;38.29;98010.88;1772205;79;21385;-65
2021/03/21 10:33:04;;;;;;;7.83;6.87;;;;;;;5.12;38.98;97999.06;1797471;79;20971;-63
2021/03/21 10:35:43;;;;;;;7.62;6.92;;;;;;;5.10;39.45;97999.62;1797406;79;20921;-64
2021/03/21 10:38:32;;;;;;;7.72;7.00;;;;;;;5.13;40.03;97994.98;1797152;79;20956;-64
2021/03/21 10:41:00;;;;;;;7.10;5.85;;;;;;;5.17;38.51;97986.35;1796566;79;21438;-66
2021/03/21 10:43:35;;;;;;;9.00;7.70;;;;;;;5.19;38.18;97984.48;1797198;79;21417;-65
2021/03/21 10:46:06;;;;;;;10.95;7.80;;;;;;;5.22;39.05;97984.33;1795154;79;20969;-64
2021/03/21 10:48:45;;;;;;;9.38;7.72;;;;;;;5.24;38.69;97972.63;1781989;79;26674;-64
2021/03/21 10:51:13;;;;;;;10.10;7.62;;;;;;;5.31;38.32;97978.95;1811992;79;20972;-65
2021/03/21 10:53:52;;;;;;;9.78;6.55;;;;;;;5.31;38.90;97972.30;1811966;79;21059;-65
2021/03/21 10:56:21;;;;;;;7.40;6.67;;;;;;;5.30;38.25;97969.23;1811554;79;21199;-66
2021/03/21 10:59:16;;;;;;;7.17;5.95;;;;;;;5.29;38.55;97952.89;1811694;79;20948;-65
2021/03/21 11:01:44;;;;;;;7.03;6.33;;;;;;;5.28;38.71;97967.13;1811401;79;21000;-64
2021/03/21 11:04:31;;;;;;;8.65;6.05;;;;;;;5.21;38.69;97955.97;1811939;79;20975;-65
2021/03/21 11:07:12;;;;;;;6.85;6.10;;;;;;;5.19;39.05;97961.86;1811907;79;21008;-66
2021/03/21 11:10:01;;;;;;;8.18;6.58;;;;;;;5.18;39.79;97945.48;1811871;79;21200;-64
2021/03/21 11:12:40;;;;;;;8.10;6.22;;;;;;;5.16;39.21;97956.70;1810829;79;21012;-65
2021/03/21 11:15:29;;;;;;;8.28;7.45;;;;;;;5.13;38.63;97951.54;1812107;79;21466;-64
2021/03/21 11:18:05;;;;;;;9.48;7.30;;;;;;;5.13;38.85;97944.88;1812321;79;20979;-64
2021/03/21 11:20:36;;;;;;;9.00;7.75;;;;;;;5.12;40.13;97935.16;1812448;79;20877;-64
2021/03/21 11:23:11;;;;;;;8.30;6.17;;;;;;;5.12;40.54;97928.03;1812159;79;21366;-65
2021/03/21 11:25:42;;;;;;;7.83;6.45;;;;;;;5.14;40.37;97927.95;1812243;79;20984;-65
2021/03/21 11:28:23;;;;;;;7.53;6.50;;;;;;;5.14;39.12;97925.28;1812074;79;20972;-65
2021/03/21 11:30:55;;;;;;;7.30;6.60;;;;;;;5.14;39.13;97926.61;1812377;79;20924;-66
2021/03/21 11:33:39;;;;;;;8.85;7.95;;;;;;;5.11;38.95;97914.80;1812331;79;20995;-65
2021/03/21 11:36:22;;;;;;;13.72;8.00;;;;;;;5.12;40.29;97905.41;1811790;79;21179;-65
2021/03/21 11:38:50;;;;;;;11.12;7.90;;;;;;;5.15;38.90;97895.06;1812151;79;21008;-64
2021/03/21 11:41:40;;;;;;;10.55;9.50;;;;;;;5.14;38.20;97877.36;1812343;79;20936;-64
2021/03/21 11:44:21;;;;;;;9.20;8.00;;;;;;;5.12;39.92;97881.44;1811724;79;20943;-64
2021/03/21 11:46:50;;;;;;;8.88;7.03;;;;;;;5.17;39.07;97883.85;1812065;78;20984;-64
2021/03/21 11:49:18;;;;;;;7.22;6.53;;;;;;;5.19;39.17;97876.66;1798815;79;21184;-65
2021/03/21 11:51:46;;;;;;;8.15;7.28;;;;;;;5.22;39.17;97872.50;1797126;79;20956;-64
2021/03/21 11:54:20;;;;;;;9.10;8.20;;;;;;;5.25;39.00;97868.33;1797411;79;21032;-63
2021/03/21 11:57:06;;;;;;;10.03;6.70;;;;;;;5.28;39.19;97860.63;1797238;79;20964;-63
2021/03/21 11:59:49;;;;;;;9.08;7.58;;;;;;;5.31;39.25;97862.62;1796631;79;21647;-66
2021/03/21 12:02:42;;;;;;;6.62;5.97;;;;;;;5.32;39.05;97859.52;1797622;79;22207;-63
2021/03/21 12:05:17;;;;;;;7.90;7.10;;;;;;;5.34;38.30;97859.80;1796738;79;20956;-76
2021/03/21 12:07:47;;;;;;;7.75;6.95;;;;;;;5.38;40.19;97851.18;1744572;78;21036;-85
2021/03/21 12:10:33;;;;;;;8.55;7.75;;;;;;;5.36;39.10;97840.61;1693572;84;21009;-69
2021/03/21 12:13:31;;;;;;;8.10;7.30;;;;;;;5.37;38.75;97850.30;1693905;84;20966;-67
2021/03/21 12:16:08;;;;;;;6.90;6.20;;;;;;;5.39;38.73;97844.89;1693358;84;22631;-66
2021/03/21 12:18:39;;;;;;;8.10;6.85;;;;;;;5.41;38.13;97838.53;1689328;84;21016;-67
2021/03/21 12:21:13;;;;;;;9.75;8.08;;;;;;;5.37;38.32;97828.15;1674662;84;20973;-68
2021/03/21 12:24:00;;;;;;;8.45;7.55;;;;;;;5.38;39.59;97828.06;1693798;84;20950;-69
2021/03/21 12:26:40;;;;;;;8.15;7.33;;;;;;;5.39;38.90;97824.46;1693771;84;21004;-67
2021/03/21 12:29:28;;;;;;;8.13;7.33;;;;;;;5.41;38.74;97806.58;1692796;84;21425;-68
2021/03/21 12:32:31;;;;;;;10.05;6.75;;;;;;;5.41;38.65;97801.25;1693660;84;21029;-67
2021/03/21 12:34:59;;;;;;;8.75;7.00;;;;;;;5.45;38.57;97814.39;1693801;84;21005;-68
2021/03/21 12:37:46;;;;;;;8.08;6.25;;;;;;;5.41;37.58;97799.92;1693649;84;21041;-68
2021/03/21 12:40:19;;;;;;;17.45;9.53;;;;;;;5.34;38.22;97795.88;1693772;84;21459;-68
2021/03/21 12:42:49;;;;;;;8.00;7.12;;;;;;;5.35;39.32;97804.27;1693091;84;21468;-68